• Join FlightAware (Why Join?)
  • Login
  • US Flag 
03:16PM EDT


 

Airport Tracker/Info


-or-


 

Live Flight TrackerFlight Track Log ✈ SKW6528 ✈ 24-Apr-2013 ✈ KDEN - KSGF

Flight Track Log - Related Links

Times and Time Zones

All times are in EDT time to prevent confusion due to time zone crossing. See the SKW6528 flight status page for this flight to view local times or setup timezone preferences in your user account.

Time Position Orientation Groundspeed Altitude Reporting Facility
EDT Latitude Longitude Course Direction KTS MPH feet Rate Location/Type
12:22PM 39.7849 -104.1102 101° East  Level FlightAware Approximate
12:23PM 39.7621 -103.9258 98° East  Level FlightAware Approximate
12:24PM 39.7329 -103.7437 95° East  Level FlightAware Approximate
12:25PM 39.7213 -103.5566 95° East  Level FlightAware Approximate
12:26PM 39.7049 -103.3702 98° East  Level FlightAware Approximate
12:27PM 39.6852 -103.1844 98° East  Level FlightAware Approximate
12:28PM 39.6735 -102.9975 94° East  Level FlightAware Approximate
12:29PM 39.6577 -102.8112 99° East  Level FlightAware Approximate
12:30PM 39.6383 -102.6255 97° East  Level FlightAware Approximate
12:31PM 39.6205 -102.4395 97° East  Level FlightAware Approximate
12:32PM 39.6072 -102.2549 113° Southeast  Level FlightAware Approximate
12:33PM 39.5884 -102.0702 95° East  Level FlightAware Approximate
12:34PM 39.5833 -101.8832 90° East  Level FlightAware Approximate
12:35PM 39.5610 -101.6984 100° East  Level FlightAware Approximate
12:36PM 39.5421 -101.5129 96° East  Level FlightAware Approximate
12:37PM 39.5223 -101.3278 101° East  Level FlightAware Approximate
12:38PM 39.4944 -101.1442 100° East  Level FlightAware Approximate
12:39PM 39.4681 -100.9603 100° East  Level FlightAware Approximate
12:40PM 39.4416 -100.7765 101° East  Level FlightAware Approximate
12:41PM 39.4147 -100.5929 101° East  Level FlightAware Approximate
12:42PM 39.3875 -100.4094 101° East  Level FlightAware Approximate
12:43PM 39.3601 -100.2261 101° East  Level FlightAware Approximate
12:44PM 39.3323 -100.0429 101° East  Level FlightAware Approximate
12:45PM 39.3043 -99.8598 101° East  Level FlightAware Approximate
12:46PM 39.2760 -99.6770 101° East  Level FlightAware Approximate
12:47PM 39.2474 -99.4942 101° East  Level FlightAware Approximate
12:48PM 39.2185 -99.3116 101° East  Level FlightAware Approximate
12:49PM 39.1891 -99.1292 102° East  Level FlightAware Approximate
12:50PM 39.1594 -98.9470 102° East  Level FlightAware Approximate
12:51PM 39.1294 -98.7650 102° East  Level FlightAware Approximate
12:52PM 39.0991 -98.5830 102° East  Level FlightAware Approximate
12:53PM 39.0686 -98.4013 102° East  Level FlightAware Approximate
12:54PM 39.0377 -98.2197 102° East  Level FlightAware Approximate
12:55PM 39.0066 -98.0383 102° East  Level FlightAware Approximate
12:56PM 38.9563 -97.8647 113° Southeast  Level FlightAware Approximate
12:57PM 38.9008 -97.6934 113° Southeast  Level FlightAware Approximate
12:58PM 38.8449 -97.5224 113° Southeast  Level FlightAware Approximate
12:59PM 38.7889 -97.3517 113° Southeast  Level FlightAware Approximate
01:00PM 38.7326 -97.1812 113° Southeast  Level FlightAware Approximate
01:01PM 38.6760 -97.0110 113° Southeast  Level FlightAware Approximate
01:02PM 38.6190 -96.8412 113° Southeast  Level FlightAware Approximate
01:03PM 38.5614 -96.6719 113° Southeast  Level FlightAware Approximate
01:04PM 38.5035 -96.5029 114° Southeast  Level FlightAware Approximate
01:05PM 38.4453 -96.3341 114° Southeast  Level FlightAware Approximate
01:06PM 38.3869 -96.1656 114° Southeast  Level FlightAware Approximate
01:07PM 38.3283 -95.9974 114° Southeast  Level FlightAware Approximate
01:08PM 38.2677 -95.8304 115° Southeast  Level FlightAware Approximate
01:09PM 38.2055 -95.6646 115° Southeast  Level FlightAware Approximate
01:10PM 38.1422 -95.5011 122° Southeast  Level FlightAware Approximate
01:11PM 38.0803 -95.3355 114° Southeast  Level FlightAware Approximate
01:12PM 38.0203 -95.1688 115° Southeast  Level FlightAware Approximate
01:13PM 37.9696 -94.9981 104° East  Level FlightAware Approximate
01:14PM 37.9122 -94.8304 117° Southeast  Level FlightAware Approximate
01:15PM 37.8470 -94.6673 117° Southeast  Level FlightAware Approximate
01:16PM 37.7868 -94.5012 114° Southeast  Level FlightAware Approximate
01:17PM 37.7279 -94.3346 114° Southeast  Level FlightAware Approximate
01:18PM 37.6685 -94.1683 114° Southeast  Level FlightAware Approximate
01:19PM 37.6023 -94.0069 113° Southeast  Level FlightAware Approximate
01:20PM 37.5457 -93.8393 117° Southeast  Level FlightAware Approximate
01:21PM 37.4808 -93.6768 117° Southeast  Level FlightAware Approximate
01:22PM 37.4160 -93.5146 113° Southeast  Level FlightAware Approximate
01:23PM 37.3577 -93.3487 122° Southeast  Level FlightAware Approximate
01:24PM 37.2457 -93.3886 202° Southwest  Level Estimated
01:25PM 37.2457 -93.3886 202° Southwest  Level Estimated
01:26PM 37.2457 -93.3886 202° Southwest  Level Estimated
01:27PM 37.2457 -93.3886 202° Southwest  Level Estimated
01:28PM 37.2457 -93.3886 202° Southwest  Level Estimated
01:29PM 37.2457 -93.3886 202° Southwest  Level Estimated
01:30PM 37.2457 -93.3886 202° Southwest  Level Estimated
01:31PM 37.2457 -93.3886 202° Southwest  Level Estimated
01:32PM 37.2457 -93.3886 202° Southwest  Level Estimated
01:33PM 37.2457 -93.3886 202° Southwest  Level Estimated
01:34PM 37.2457 -93.3886 202° Southwest  Level Estimated